Time;durP1;ratioP1;P1;durP2;ratioP2;P2;SDS_P1;SDS_P2;PMS_P1;PMS_P2;Temp;Humidity;BMP_temperature;BMP_pressure;BME280_temperature;BME280_humidity;BME280_pressure;Samples;Min_cycle;Max_cycle;Signal;HPM_P1;HPM_P2
2022/04/08 00:02:32;;;;;;;18.85;12.55;;;;;;;7.92;100.00;98487.16;6222059;23;20149;-62
2022/04/08 00:05:16;;;;;;;18.38;12.07;;;;;;;8.40;100.00;98561.41;6218496;23;20383;-70
2022/04/08 00:08:03;;;;;;;20.73;13.32;;;;;;;8.39;100.00;98562.34;6221112;23;20023;-65
2022/04/08 00:10:48;;;;;;;17.88;12.52;;;;;;;8.12;100.00;98529.66;6214744;23;20035;-63
2022/04/08 00:13:32;;;;;;;19.42;12.90;;;;;;;8.20;100.00;98532.94;6225629;23;20023;-64
2022/04/08 00:16:17;;;;;;;20.53;13.80;;;;;;;8.39;100.00;98565.81;6214290;23;20497;-64
2022/04/08 00:19:01;;;;;;;19.77;13.35;;;;;;;8.19;100.00;98530.38;6225652;23;20027;-62
2022/04/08 00:21:48;;;;;;;19.92;13.10;;;;;;;8.29;100.00;98559.09;6215903;23;20378;-63
2022/04/08 00:24:34;;;;;;;20.05;13.90;;;;;;;8.31;100.00;98561.72;6225722;23;20019;-64
2022/04/08 00:27:18;;;;;;;22.05;14.15;;;;;;;8.24;100.00;98553.06;6226385;23;20504;-63
2022/04/08 00:30:03;;;;;;;21.25;13.15;;;;;;;8.22;100.00;98559.31;6225915;23;20034;-64
2022/04/08 00:32:48;;;;;;;20.23;14.25;;;;;;;8.16;100.00;98552.41;6215804;23;20032;-62
2022/04/08 00:35:32;;;;;;;17.65;13.48;;;;;;;8.16;100.00;98554.22;6215142;23;20332;-63
2022/04/08 00:38:16;;;;;;;20.67;14.73;;;;;;;8.18;100.00;98555.88;6225034;23;20019;-62
2022/04/08 00:41:01;;;;;;;19.13;13.40;;;;;;;8.14;100.00;98551.59;6209515;23;20311;-63
2022/04/08 00:43:45;;;;;;;19.35;14.25;;;;;;;8.04;100.00;98533.44;6208371;23;20562;-71
2022/04/08 00:46:30;;;;;;;20.40;13.73;;;;;;;8.10;100.00;98557.88;6210697;23;20074;-63
2022/04/08 00:49:14;;;;;;;20.15;13.50;;;;;;;8.08;100.00;98550.94;6207209;23;20023;-63
2022/04/08 00:52:00;;;;;;;20.40;13.52;;;;;;;8.13;100.00;98554.28;6219452;23;20458;-63
2022/04/08 00:54:48;;;;;;;18.55;13.82;;;;;;;8.13;100.00;98559.56;6219507;23;20051;-64
2022/04/08 00:57:33;;;;;;;19.88;13.65;;;;;;;8.12;100.00;98550.78;6220388;23;20123;-64
2022/04/08 01:00:21;;;;;;;18.40;12.60;;;;;;;8.04;100.00;98558.06;6220607;23;20023;-64
2022/04/08 01:03:06;;;;;;;19.60;13.30;;;;;;;8.07;100.00;98557.97;6216071;23;20071;-69
2022/04/08 01:05:50;;;;;;;20.48;13.38;;;;;;;8.00;100.00;98558.22;6185876;23;20047;-65
2022/04/08 01:08:36;;;;;;;19.63;12.83;;;;;;;8.10;100.00;98563.16;6214719;23;20070;-63
2022/04/08 01:11:22;;;;;;;19.88;13.23;;;;;;;8.04;100.00;98558.06;6218306;23;20456;-65
2022/04/08 01:14:11;;;;;;;25.48;13.85;;;;;;;8.07;100.00;98559.78;6210210;23;20148;-64
2022/04/08 01:16:56;;;;;;;22.77;14.07;;;;;;;7.94;100.00;98532.84;6215799;23;20599;-66
2022/04/08 01:19:40;;;;;;;18.38;13.18;;;;;;;8.10;100.00;98563.16;6217575;23;20035;-63
2022/04/08 01:22:26;;;;;;;20.27;13.23;;;;;;;8.08;100.00;98557.06;6204421;23;20023;-65
2022/04/08 01:25:12;;;;;;;18.70;13.10;;;;;;;8.07;100.00;98550.06;6218169;23;20062;-64
2022/04/08 01:27:56;;;;;;;20.63;12.13;;;;;;;8.09;100.00;98548.25;6216130;23;20233;-65
2022/04/08 01:30:40;;;;;;;19.60;13.05;;;;;;;8.11;100.00;98549.06;6217994;23;20104;-64
2022/04/08 01:33:25;;;;;;;18.63;13.25;;;;;;;8.08;100.00;98549.13;6220328;23;20070;-64
2022/04/08 01:36:09;;;;;;;17.40;12.67;;;;;;;7.91;100.00;98527.66;6197126;23;20023;-65
2022/04/08 01:38:54;;;;;;;23.75;13.10;;;;;;;8.01;100.00;98555.53;6220225;23;20326;-64
2022/04/08 01:41:38;;;;;;;19.88;12.93;;;;;;;8.01;100.00;98550.25;6218289;23;20078;-63
2022/04/08 01:44:22;;;;;;;19.35;13.15;;;;;;;8.03;100.00;98543.13;6213676;23;20070;-64
2022/04/08 01:47:07;;;;;;;19.63;13.25;;;;;;;8.06;100.00;98547.44;6214946;22;20023;-63
2022/04/08 01:49:54;;;;;;;17.02;12.55;;;;;;;8.06;100.00;98550.97;6217040;23;20020;-66
2022/04/08 01:52:38;;;;;;;18.88;12.80;;;;;;;7.88;100.00;98524.25;6216395;23;20143;-66
2022/04/08 01:55:24;;;;;;;17.15;12.75;;;;;;;8.06;100.00;98558.88;6185059;23;20102;-67
2022/04/08 01:58:10;;;;;;;15.45;11.80;;;;;;;8.08;100.00;98554.41;6205778;23;20016;-64
2022/04/08 02:00:55;;;;;;;17.20;12.15;;;;;;;7.94;100.00;98527.56;6184778;23;20143;-64
2022/04/08 02:03:40;;;;;;;16.52;11.60;;;;;;;8.06;100.00;98558.88;6207298;23;20020;-63
2022/04/08 02:06:24;;;;;;;18.95;12.02;;;;;;;8.10;100.00;98551.72;6208199;23;20347;-64
2022/04/08 02:09:11;;;;;;;17.33;11.13;;;;;;;8.17;100.00;98558.56;6209042;23;20023;-64
2022/04/08 02:11:56;;;;;;;19.60;12.27;;;;;;;8.19;100.00;98554.97;6189892;23;20035;-64
2022/04/08 02:14:40;;;;;;;17.92;10.27;;;;;;;8.24;100.00;98553.06;6221719;23;20019;-74
2022/04/08 02:17:25;;;;;;;15.40;10.73;;;;;;;8.19;100.00;98559.41;6211221;23;20027;-63
2022/04/08 02:20:10;;;;;;;16.77;10.43;;;;;;;8.20;100.00;98547.91;6220127;23;20087;-63
2022/04/08 02:22:54;;;;;;;12.75;9.73;;;;;;;8.18;100.00;98553.25;6221172;23;20019;-65
2022/04/08 02:25:39;;;;;;;16.88;9.93;;;;;;;8.08;100.00;98533.28;6219126;23;20374;-63
2022/04/08 02:28:23;;;;;;;15.63;8.82;;;;;;;7.84;100.00;98464.56;6210565;23;20066;-62
2022/04/08 02:31:08;;;;;;;18.27;9.75;;;;;;;8.24;100.00;98539.88;6221437;23;20229;-63
2022/04/08 02:33:52;;;;;;;16.55;9.13;;;;;;;8.27;100.00;98539.78;6221288;23;20019;-63
2022/04/08 02:36:36;;;;;;;16.17;9.77;;;;;;;8.34;100.00;98561.59;6212374;23;20020;-63
2022/04/08 02:39:21;;;;;;;14.13;8.73;;;;;;;8.12;100.00;98527.00;6187947;23;20019;-66
2022/04/08 02:42:06;;;;;;;13.93;9.18;;;;;;;8.32;100.00;98559.00;6222112;23;20015;-63
2022/04/08 02:44:50;;;;;;;12.50;8.50;;;;;;;8.39;100.00;98557.06;6219896;23;20070;-63
2022/04/08 02:47:45;;;;;;;12.02;8.63;;;;;;;8.46;100.00;98562.09;6222067;23;20023;-64
2022/04/08 02:50:29;;;;;;;10.70;8.02;;;;;;;8.47;100.00;98561.16;6190210;23;20102;-64
2022/04/08 02:53:14;;;;;;;13.63;8.07;;;;;;;8.43;100.00;98562.19;6198680;23;20092;-66
2022/04/08 02:55:58;;;;;;;12.57;7.33;;;;;;;8.40;100.00;98562.31;6221138;23;20562;-63
2022/04/08 02:58:43;;;;;;;13.93;7.47;;;;;;;8.27;100.00;98526.59;6218298;23;20023;-63
2022/04/08 03:01:27;;;;;;;10.70;7.50;;;;;;;8.42;100.00;98554.28;6220731;23;20020;-63
2022/04/08 03:04:12;;;;;;;12.30;7.80;;;;;;;8.46;100.00;98556.81;6210097;23;20276;-66
2022/04/08 03:06:58;;;;;;;12.10;7.60;;;;;;;8.37;100.00;98540.38;6189357;23;20028;-65
2022/04/08 03:09:42;;;;;;;12.57;8.40;;;;;;;8.60;100.00;98575.75;6222034;23;20023;-64
2022/04/08 03:12:27;;;;;;;16.80;8.05;;;;;;;8.39;100.00;98528.00;6222185;23;20020;-65
2022/04/08 03:15:11;;;;;;;12.07;8.40;;;;;;;8.63;100.00;98566.88;6225171;23;20019;-63
2022/04/08 03:17:56;;;;;;;10.05;7.13;;;;;;;8.69;100.00;98566.66;6193500;23;20297;-64
2022/04/08 03:20:40;;;;;;;13.48;8.30;;;;;;;8.80;100.00;98583.91;6225849;23;20046;-64
2022/04/08 03:23:24;;;;;;;12.90;8.18;;;;;;;8.74;100.00;98580.56;6226333;23;20435;-64
2022/04/08 03:26:09;;;;;;;13.37;7.83;;;;;;;8.74;100.00;98570.00;6226271;23;20446;-66
2022/04/08 03:28:53;;;;;;;11.35;7.70;;;;;;;8.88;100.00;98581.91;6173585;23;20251;-64
2022/04/08 03:31:38;;;;;;;9.13;7.03;;;;;;;8.91;100.00;98587.06;6225889;23;20457;-64
2022/04/08 03:34:22;;;;;;;10.85;7.50;;;;;;;9.01;100.00;98585.84;6226255;23;20107;-63
2022/04/08 03:37:07;;;;;;;14.93;8.47;;;;;;;9.05;100.00;98589.25;6226078;23;20066;-64
2022/04/08 03:39:51;;;;;;;12.10;6.75;;;;;;;9.02;100.00;98584.09;6193161;23;20047;-66
2022/04/08 03:42:36;;;;;;;10.32;6.68;;;;;;;9.08;100.00;98594.44;6224638;23;20382;-66
2022/04/08 03:45:20;;;;;;;8.65;6.50;;;;;;;9.14;100.00;98581.03;6224983;23;20071;-64
2022/04/08 03:48:07;;;;;;;11.45;6.63;;;;;;;9.20;100.00;98596.69;6193786;23;20023;-64
2022/04/08 03:50:51;;;;;;;8.32;6.65;;;;;;;9.25;100.00;98587.69;6226119;23;20016;-63
2022/04/08 03:53:36;;;;;;;9.98;7.20;;;;;;;9.30;100.00;98583.09;6225747;23;20335;-63
2022/04/08 03:56:20;;;;;;;12.10;6.60;;;;;;;9.09;100.00;98562.69;6224949;23;20119;-65
2022/04/08 03:59:05;;;;;;;9.65;6.43;;;;;;;9.28;100.00;98597.31;6193402;23;20135;-65
2022/04/08 04:01:49;;;;;;;8.27;5.80;;;;;;;9.33;100.00;98576.84;6226064;23;20127;-64
2022/04/08 04:04:34;;;;;;;6.97;5.75;;;;;;;9.56;100.00;98608.66;6226107;23;20065;-63
2022/04/08 04:07:18;;;;;;;11.65;5.85;;;;;;;9.46;100.00;98592.25;6226098;23;20070;-64
2022/04/08 04:10:03;;;;;;;10.52;6.50;;;;;;;9.57;100.00;98594.50;6227322;23;20031;-64
2022/04/08 04:12:48;;;;;;;9.60;5.93;;;;;;;9.68;100.00;98586.22;6229668;23;20084;-67
2022/04/08 04:15:32;;;;;;;10.35;5.97;;;;;;;9.84;100.00;98590.91;6206528;23;20024;-64
2022/04/08 04:18:17;;;;;;;8.88;6.53;;;;;;;10.00;100.00;98593.88;6193305;23;20019;-65
2022/04/08 04:21:02;;;;;;;9.32;6.07;;;;;;;10.09;100.00;98577.69;6224045;23;20019;-64
2022/04/08 04:23:47;;;;;;;10.70;5.88;;;;;;;10.31;100.00;98592.72;6224244;23;20024;-64
2022/04/08 04:26:31;;;;;;;10.43;6.68;;;;;;;10.24;100.00;98595.66;6224740;23;20071;-65
2022/04/08 04:29:15;;;;;;;9.02;6.00;;;;;;;10.34;100.00;98589.06;6223815;23;20099;-64
2022/04/08 04:32:00;;;;;;;11.70;6.13;;;;;;;10.54;100.00;98595.34;6225196;23;20123;-63
2022/04/08 04:34:45;;;;;;;8.45;5.88;;;;;;;10.59;100.00;98590.72;6225473;23;20454;-64
2022/04/08 04:37:30;;;;;;;8.10;5.45;;;;;;;10.63;100.00;98572.91;6225847;23;20374;-64
2022/04/08 04:40:14;;;;;;;10.32;5.70;;;;;;;10.78;100.00;98570.53;6225785;23;20067;-65
2022/04/08 04:43:00;;;;;;;11.55;5.40;;;;;;;11.03;100.00;98583.69;6225704;23;20024;-65
2022/04/08 04:45:44;;;;;;;10.85;5.75;;;;;;;11.08;100.00;98584.34;6226154;23;20319;-64
2022/04/08 04:48:29;;;;;;;10.38;5.50;;;;;;;11.00;100.00;98562.59;6225248;23;20039;-65
2022/04/08 04:51:16;;;;;;;8.40;5.10;;;;;;;11.24;100.00;98588.94;6224996;23;20087;-64
2022/04/08 04:54:00;;;;;;;8.77;5.57;;;;;;;11.31;100.00;98590.41;6202131;23;20077;-65
2022/04/08 04:56:45;;;;;;;8.73;5.20;;;;;;;11.32;100.00;98584.19;6225472;23;20230;-64
2022/04/08 04:59:30;;;;;;;10.35;5.22;;;;;;;11.33;100.00;98585.06;6225403;23;20036;-63
2022/04/08 05:02:14;;;;;;;7.57;5.53;;;;;;;11.41;100.00;98591.78;6223807;23;20330;-64
2022/04/08 05:04:59;;;;;;;6.85;4.82;;;;;;;11.42;100.00;98592.63;6192607;23;20326;-65
2022/04/08 05:07:43;;;;;;;7.15;4.82;;;;;;;11.34;100.00;98570.84;6224139;23;20039;-64
2022/04/08 05:10:29;;;;;;;10.30;5.43;;;;;;;11.54;100.00;98594.75;6225744;23;20153;-65
2022/04/08 05:13:13;;;;;;;10.18;5.47;;;;;;;11.45;100.00;98571.28;6223997;23;20066;-64
2022/04/08 05:15:57;;;;;;;8.68;5.32;;;;;;;11.54;100.00;98592.97;6225611;23;20090;-64
2022/04/08 05:18:42;;;;;;;12.00;5.43;;;;;;;11.56;100.00;98585.84;6192736;23;20019;-64
2022/04/08 05:21:29;;;;;;;8.98;5.30;;;;;;;11.65;100.00;98587.25;6224684;23;20492;-70
2022/04/08 05:24:14;;;;;;;9.38;6.10;;;;;;;11.63;100.00;98570.53;6202972;23;20035;-67
2022/04/08 05:26:58;;;;;;;10.77;5.57;;;;;;;11.81;100.00;98585.66;6224805;23;20024;-65
2022/04/08 05:29:43;;;;;;;8.73;6.32;;;;;;;11.95;100.00;98585.91;6225107;23;20032;-65
2022/04/08 05:32:27;;;;;;;9.13;6.53;;;;;;;11.99;100.00;98587.50;6225511;23;20393;-65
2022/04/08 05:35:14;;;;;;;9.40;6.38;;;;;;;11.98;100.00;98588.41;6224994;23;20024;-63
2022/04/08 05:37:58;;;;;;;9.25;5.72;;;;;;;12.09;100.00;98581.72;6223542;23;20016;-64
2022/04/08 05:40:43;;;;;;;7.40;5.47;;;;;;;12.13;100.00;98575.31;6202705;23;20378;-64
2022/04/08 05:43:28;;;;;;;9.27;6.00;;;;;;;12.22;100.00;98585.53;6216859;23;20092;-65
2022/04/08 05:46:14;;;;;;;7.15;5.30;;;;;;;12.30;100.00;98579.88;6171425;23;20018;-64
2022/04/08 05:48:58;;;;;;;7.45;5.47;;;;;;;12.30;100.00;98558.63;6213499;23;20019;-64
2022/04/08 05:51:45;;;;;;;9.38;5.57;;;;;;;12.57;100.00;98583.91;6213317;23;20023;-64
2022/04/08 05:54:29;;;;;;;8.82;6.15;;;;;;;12.52;100.00;98570.84;6224807;23;20095;-65
2022/04/08 05:57:17;;;;;;;8.32;5.07;;;;;;;12.70;100.00;98583.25;6192153;23;20019;-64
2022/04/08 06:00:04;;;;;;;13.20;5.57;;;;;;;12.73;100.00;98574.25;6225005;23;20069;-66
2022/04/08 06:02:49;;;;;;;12.60;5.63;;;;;;;12.80;100.00;98575.69;6213785;23;20498;-66
2022/04/08 06:05:33;;;;;;;6.50;4.88;;;;;;;12.90;100.00;98592.97;6226307;23;20442;-65
2022/04/08 06:08:17;;;;;;;7.85;5.65;;;;;;;12.91;100.00;98590.25;6228406;23;20098;-65
2022/04/08 06:11:03;;;;;;;8.38;5.47;;;;;;;13.02;100.00;98592.41;6216967;23;20047;-64
2022/04/08 06:13:47;;;;;;;9.18;5.15;;;;;;;12.86;100.00;98600.22;6208512;23;20018;-68
2022/04/08 06:16:31;;;;;;;9.25;5.65;;;;;;;12.92;100.00;98604.38;6171642;23;20159;-65
2022/04/08 06:19:16;;;;;;;11.65;5.82;;;;;;;12.97;100.00;98600.59;6223610;23;20078;-67
2022/04/08 06:22:05;;;;;;;11.95;5.82;;;;;;;12.91;100.00;98597.34;6225309;23;20437;-66
2022/04/08 06:24:50;;;;;;;11.40;5.88;;;;;;;13.22;100.00;98602.94;6213205;23;20023;-66
2022/04/08 06:27:35;;;;;;;11.13;5.47;;;;;;;13.34;100.00;98599.69;6213878;23;20389;-66
2022/04/08 06:30:19;;;;;;;10.95;6.07;;;;;;;13.50;100.00;98592.66;6223756;23;20042;-65
2022/04/08 06:33:05;;;;;;;12.13;5.90;;;;;;;13.53;100.00;98592.50;6224627;23;20023;-63
2022/04/08 06:35:50;;;;;;;8.10;5.53;;;;;;;13.67;100.00;98582.88;6203242;23;20023;-65
2022/04/08 06:38:34;;;;;;;11.05;5.55;;;;;;;13.98;100.00;98590.97;6223432;23;20063;-64
2022/04/08 06:41:19;;;;;;;11.05;6.00;;;;;;;14.31;100.00;98579.53;6202182;23;20378;-66
2022/04/08 06:44:03;;;;;;;10.13;5.95;;;;;;;14.64;100.00;98591.03;6202612;23;20066;-65
2022/04/08 06:46:48;;;;;;;13.57;7.13;;;;;;;14.94;100.00;98603.53;6202223;23;20039;-66
2022/04/08 06:49:33;;;;;;;;;;;;;;;15.14;100.00;98594.38;6225850;23;20015;-66
2022/04/08 06:52:17;;;;;;;12.68;6.95;;;;;;;15.05;100.00;98590.44;6192903;23;19961;-65
2022/04/08 06:55:01;;;;;;;8.55;5.60;;;;;;;15.04;100.00;98587.84;6225267;23;20018;-68
2022/04/08 06:57:46;;;;;;;14.82;6.50;;;;;;;14.98;100.00;98582.84;6215604;23;20352;-65
2022/04/08 07:00:32;;;;;;;9.95;5.78;;;;;;;15.03;100.00;98583.47;6194072;23;20034;-66
2022/04/08 07:03:16;;;;;;;9.48;5.60;;;;;;;14.83;100.00;98589.06;6226358;23;20127;-66
2022/04/08 07:06:01;;;;;;;12.18;5.63;;;;;;;14.80;100.00;98589.22;6225161;23;20441;-66
2022/04/08 07:08:45;;;;;;;8.90;5.40;;;;;;;14.95;100.00;98583.03;6226431;23;20027;-65
2022/04/08 07:11:32;;;;;;;12.07;5.57;;;;;;;15.00;100.00;98586.31;6173366;23;20147;-64
2022/04/08 07:14:17;;;;;;;9.55;5.57;;;;;;;14.99;100.00;98580.09;6225080;23;20024;-65
2022/04/08 07:17:01;;;;;;;11.82;5.95;;;;;;;15.12;100.00;98588.28;6215168;23;20039;-65
2022/04/08 07:19:47;;;;;;;12.20;6.13;;;;;;;15.23;100.00;98581.34;6226774;23;20047;-66
2022/04/08 07:22:32;;;;;;;9.50;5.63;;;;;;;15.55;100.00;98596.41;6172971;23;20450;-66
2022/04/08 07:25:16;;;;;;;8.75;5.93;;;;;;;15.92;99.41;98595.97;6193840;23;20043;-65
2022/04/08 07:28:00;;;;;;;9.63;5.88;;;;;;;16.32;95.45;98597.06;6203793;23;20059;-66
2022/04/08 07:30:48;;;;;;;7.70;5.57;;;;;;;16.65;92.24;98595.00;6226833;23;20024;-65
2022/04/08 07:33:32;;;;;;;11.60;6.05;;;;;;;17.07;86.87;98594.94;6215459;23;20023;-65
2022/04/08 07:36:17;;;;;;;14.70;6.38;;;;;;;17.80;88.08;98598.06;6226590;23;20020;-65
2022/04/08 07:39:01;;;;;;;10.00;7.35;;;;;;;18.20;84.75;98598.03;6203650;23;20022;-66
2022/04/08 07:41:45;;;;;;;14.07;7.45;;;;;;;18.17;85.36;98605.31;6225433;23;20086;-66
2022/04/08 07:44:30;;;;;;;9.52;6.20;;;;;;;18.27;84.55;98610.88;6226653;23;20330;-65
2022/04/08 07:47:15;;;;;;;12.70;6.47;;;;;;;17.57;84.50;98616.66;6224948;23;20450;-65
2022/04/08 07:50:03;;;;;;;17.42;6.68;;;;;;;17.47;88.44;98605.69;6226495;23;20024;-66
2022/04/08 07:52:47;;;;;;;9.55;6.18;;;;;;;17.09;86.50;98601.09;6193706;23;20066;-67
2022/04/08 07:55:31;;;;;;;11.63;6.38;;;;;;;17.27;88.86;98591.84;6224882;23;20327;-65
2022/04/08 07:58:16;;;;;;;13.43;6.70;;;;;;;17.25;86.48;98591.09;6224042;23;20403;-65
2022/04/08 08:01:01;;;;;;;11.65;6.55;;;;;;;17.46;86.17;98608.47;6214477;23;20019;-69
2022/04/08 08:03:47;;;;;;;9.27;6.72;;;;;;;17.89;82.52;98616.19;6225847;23;20023;-66
2022/04/08 08:06:31;;;;;;;10.30;6.90;;;;;;;17.99;80.07;98611.06;6225862;23;20334;-66
2022/04/08 08:09:16;;;;;;;14.93;7.03;;;;;;;18.50;76.61;98607.50;6224870;23;20458;-67
2022/04/08 08:12:02;;;;;;;15.00;6.93;;;;;;;19.10;73.51;98610.34;6193190;23;20023;-65
2022/04/08 08:14:46;;;;;;;14.48;7.38;;;;;;;19.74;68.50;98615.38;6214640;23;20307;-66
2022/04/08 08:17:30;;;;;;;12.07;7.18;;;;;;;19.76;65.99;98614.28;6223764;23;20020;-67
2022/04/08 08:20:18;;;;;;;13.02;7.68;;;;;;;19.37;65.99;98611.88;6225778;23;20114;-66
2022/04/08 08:23:03;;;;;;;16.70;7.88;;;;;;;19.11;66.24;98577.94;6225343;23;20070;-67
2022/04/08 08:25:47;;;;;;;11.23;6.68;;;;;;;19.49;66.10;98602.03;6225249;23;20058;-66
2022/04/08 08:28:32;;;;;;;13.65;7.85;;;;;;;19.34;65.16;98595.13;6223184;23;20039;-67
2022/04/08 08:31:16;;;;;;;12.48;7.45;;;;;;;20.12;64.90;98597.19;6225831;23;20024;-66
2022/04/08 08:34:01;;;;;;;11.23;7.75;;;;;;;20.82;61.60;98596.97;6225070;23;20020;-66
2022/04/08 08:36:45;;;;;;;12.27;7.53;;;;;;;20.73;60.73;98567.19;6224113;23;20028;-64
2022/04/08 08:39:30;;;;;;;12.38;6.93;;;;;;;21.41;58.98;98597.53;6223098;23;20091;-65
2022/04/08 08:42:14;;;;;;;12.75;7.72;;;;;;;21.55;55.24;98590.00;6203196;23;20023;-64
2022/04/08 08:44:58;;;;;;;12.13;8.32;;;;;;;21.06;55.63;98581.53;6224678;23;20096;-65
2022/04/08 08:47:48;;;;;;;12.65;7.32;;;;;;;21.81;55.29;98577.06;6214272;23;20052;-64
2022/04/08 08:50:32;;;;;;;12.98;7.07;;;;;;;22.17;51.43;98579.34;6225513;23;20070;-65
2022/04/08 08:53:19;;;;;;;15.77;7.38;;;;;;;22.02;51.84;98573.41;6224042;23;20027;-66
2022/04/08 08:56:05;;;;;;;9.80;7.22;;;;;;;21.70;50.53;98574.38;6213658;23;20031;-66
2022/04/08 08:58:50;;;;;;;12.27;7.63;;;;;;;21.87;50.21;98576.53;6191600;23;20066;-64
2022/04/08 09:01:34;;;;;;;11.10;7.38;;;;;;;22.17;50.44;98570.38;6221609;23;20225;-65
2022/04/08 09:04:19;;;;;;;10.93;6.95;;;;;;;22.39;46.77;98557.56;6171341;23;20315;-64
2022/04/08 09:07:05;;;;;;;12.02;7.70;;;;;;;21.89;48.44;98561.09;6192753;23;20494;-64
2022/04/08 09:09:52;;;;;;;13.82;7.55;;;;;;;21.47;49.32;98570.91;6190967;23;20023;-67
2022/04/08 09:12:37;;;;;;;11.88;7.93;;;;;;;21.40;49.75;98571.56;6222271;23;20019;-66
2022/04/08 09:15:23;;;;;;;13.63;7.15;;;;;;;21.18;51.31;98582.38;6225041;23;20059;-66
2022/04/08 09:18:13;;;;;;;13.80;6.97;;;;;;;20.91;53.51;98563.00;6224772;23;20077;-68
2022/04/08 09:20:58;;;;;;;14.85;7.57;;;;;;;20.68;51.68;98580.16;6223661;23;20387;-67
2022/04/08 09:23:43;;;;;;;12.70;7.50;;;;;;;20.02;54.09;98555.81;6213192;23;20023;-64
2022/04/08 09:26:35;;;;;;;13.80;7.10;;;;;;;20.16;53.82;98580.72;6223215;23;20335;-65
2022/04/08 09:29:24;;;;;;;12.80;7.68;;;;;;;19.89;55.90;98558.56;6223269;23;20519;-65
2022/04/08 09:32:14;;;;;;;14.55;7.85;;;;;;;19.39;56.49;98566.94;6224688;23;20015;-66
2022/04/08 09:34:59;;;;;;;13.35;8.52;;;;;;;18.76;60.60;98541.22;6212149;23;20074;-67
2022/04/08 09:38:04;;;;;;;;;;;;;;;18.80;64.05;98550.75;6221647;23;20020;-65
2022/04/08 09:40:49;;;;;;;15.10;8.05;;;;;;;18.56;61.23;98550.72;6214731;23;19956;-65
2022/04/08 09:43:35;;;;;;;15.82;8.00;;;;;;;18.61;62.23;98545.84;6223779;23;20490;-65
2022/04/08 09:46:21;;;;;;;13.15;8.23;;;;;;;18.22;62.92;98550.47;6192808;23;20023;-65
2022/04/08 09:49:07;;;;;;;13.13;8.52;;;;;;;18.19;64.29;98550.69;6213104;23;20031;-67
2022/04/08 09:51:54;;;;;;;11.23;7.78;;;;;;;18.08;64.53;98546.91;6225021;23;20023;-66
2022/04/08 09:54:41;;;;;;;14.68;8.48;;;;;;;17.86;65.60;98543.16;6210851;23;20020;-66
2022/04/08 09:57:33;;;;;;;12.07;8.82;;;;;;;17.74;68.45;98544.84;6168418;23;20095;-65
2022/04/08 10:00:19;;;;;;;17.52;8.38;;;;;;;17.91;68.31;98538.31;6201062;23;20038;-66
2022/04/08 10:03:04;;;;;;;11.00;8.00;;;;;;;17.96;68.74;98553.13;6212867;23;20374;-66
2022/04/08 10:05:48;;;;;;;;;;;;;;;18.08;67.53;98553.25;6223170;23;20024;-66
2022/04/08 10:08:35;;;;;;;12.70;8.00;;;;;;;17.64;67.97;98540.19;6200055;23;19914;-70
2022/04/08 10:11:39;;;;;;;14.10;8.00;;;;;;;17.86;67.90;98548.50;6221506;23;20039;-69
2022/04/08 10:14:50;;;;;;;11.15;7.80;;;;;;;17.86;67.03;98545.84;6222255;23;20023;-68
2022/04/08 10:17:35;;;;;;;12.80;8.05;;;;;;;17.74;67.37;98562.75;6222237;23;20020;-68
2022/04/08 10:20:20;;;;;;;16.45;8.20;;;;;;;17.53;68.38;98524.84;6220551;23;20091;-67
2022/04/08 10:23:15;;;;;;;17.05;7.20;;;;;;;17.80;69.06;98557.84;6190311;23;20471;-77
2022/04/08 10:25:59;;;;;;;8.60;6.32;;;;;;;17.47;71.62;98549.41;6213203;23;20032;-66
2022/04/08 10:28:44;;;;;;;14.52;6.63;;;;;;;18.29;69.99;98558.00;6223690;23;20034;-66
2022/04/08 10:31:29;;;;;;;10.75;5.70;;;;;;;17.90;69.72;98566.13;6212478;23;20031;-66
2022/04/08 10:34:15;;;;;;;;;;;;;;;17.82;74.23;98560.41;6216125;23;20059;-66
2022/04/08 10:37:01;;;;;;;9.88;6.07;;;;;;;17.55;76.54;98562.28;6223635;23;19966;-66
2022/04/08 10:40:04;;;;;;;13.60;6.10;;;;;;;18.20;76.20;98561.31;6214283;23;20083;-65
2022/04/08 10:43:01;;;;;;;11.70;6.53;;;;;;;19.12;71.10;98562.69;6224716;23;20035;-66
2022/04/08 10:45:59;;;;;;;12.68;5.75;;;;;;;19.50;70.47;98558.06;6193788;23;20031;-67
2022/04/08 10:48:54;;;;;;;10.05;5.50;;;;;;;20.02;68.16;98548.56;6224300;23;20473;-66
2022/04/08 10:51:48;;;;;;;9.00;5.22;;;;;;;19.40;71.14;98543.59;6223122;23;20087;-66
2022/04/08 10:54:35;;;;;;;7.68;5.15;;;;;;;19.64;72.05;98549.81;6224582;23;20070;-66
2022/04/08 10:57:54;;;;;;;8.30;5.63;;;;;;;21.04;68.57;98551.16;6225914;23;20095;-67
2022/04/08 11:00:40;;;;;;;6.57;5.43;;;;;;;21.37;63.36;98551.06;6163208;23;20032;-66
2022/04/08 11:03:30;;;;;;;7.60;5.57;;;;;;;22.22;60.62;98566.28;6090680;23;20032;-65
2022/04/08 11:06:15;;;;;;;10.25;5.53;;;;;;;22.55;60.77;98536.41;6142081;23;20076;-65
2022/04/08 11:09:11;;;;;;;9.77;5.28;;;;;;;23.33;57.73;98552.78;6132123;23;20027;-65
2022/04/08 11:11:55;;;;;;;6.65;5.53;;;;;;;23.86;56.01;98549.56;6120554;23;20129;-67
2022/04/08 11:14:41;;;;;;;8.93;6.03;;;;;;;22.70;58.27;98540.44;6109997;23;20069;-73
2022/04/08 11:17:35;;;;;;;8.85;6.57;;;;;;;23.12;60.82;98544.72;6141580;23;20071;-66
2022/04/08 11:20:22;;;;;;;8.75;6.78;;;;;;;23.17;60.61;98534.31;6162880;23;20175;-66
2022/04/08 11:23:08;;;;;;;11.10;6.35;;;;;;;23.44;58.85;98539.97;6132258;23;20096;-67
2022/04/08 11:25:54;;;;;;;9.98;5.90;;;;;;;23.08;59.61;98535.16;6163834;23;20040;-66
2022/04/08 11:28:38;;;;;;;7.82;5.78;;;;;;;22.74;61.51;98530.22;6112632;23;20080;-68
2022/04/08 11:31:23;;;;;;;10.88;5.95;;;;;;;21.95;64.48;98538.94;6164518;23;20028;-66
2022/04/08 11:34:08;;;;;;;11.50;6.22;;;;;;;20.89;72.86;98530.78;6134224;23;20464;-73
2022/04/08 11:36:55;;;;;;;8.02;6.40;;;;;;;21.22;73.52;98525.38;6177997;23;20032;-66
2022/04/08 11:39:41;;;;;;;12.32;6.00;;;;;;;21.72;70.09;98526.59;6204420;23;20474;-68
2022/04/08 11:42:26;;;;;;;9.88;5.63;;;;;;;21.37;70.01;98523.25;6232770;23;20051;-72
2022/04/08 11:45:15;;;;;;;12.45;5.35;;;;;;;21.56;69.39;98518.03;6227199;23;20027;-74
2022/04/08 11:48:00;;;;;;;10.05;5.35;;;;;;;21.43;68.86;98515.50;6224535;23;20110;-66
2022/04/08 11:50:46;;;;;;;6.28;5.15;;;;;;;21.37;67.98;98510.59;6214940;23;20035;-66
2022/04/08 11:53:42;;;;;;;8.23;5.80;;;;;;;21.39;68.18;98478.13;6204355;23;20027;-68
2022/04/08 11:56:27;;;;;;;9.60;5.78;;;;;;;21.46;67.89;98500.91;6227960;23;20031;-66
2022/04/08 11:59:12;;;;;;;11.30;5.60;;;;;;;20.78;68.44;98489.53;6225839;23;20071;-71
2022/04/08 12:01:59;;;;;;;7.78;5.35;;;;;;;20.59;70.75;98494.69;6172548;23;20023;-68
2022/04/08 12:04:44;;;;;;;13.80;5.85;;;;;;;19.92;72.75;98474.06;6192335;23;20100;-67
2022/04/08 12:07:30;;;;;;;9.60;5.15;;;;;;;19.83;74.71;98466.72;6214613;23;20070;-67
2022/04/08 12:10:15;;;;;;;9.88;4.72;;;;;;;19.54;72.18;98484.25;6215516;23;20130;-68
2022/04/08 12:13:00;;;;;;;5.63;4.07;;;;;;;19.42;72.10;98480.66;6214448;23;20525;-68
2022/04/08 12:15:46;;;;;;;9.57;4.05;;;;;;;19.19;72.94;98464.53;6192741;23;20478;-68
2022/04/08 12:18:33;;;;;;;7.78;4.20;;;;;;;18.99;74.24;98457.13;6193176;23;20043;-69
2022/04/08 12:21:24;;;;;;;9.15;4.20;;;;;;;18.56;77.01;98456.75;6192561;23;20102;-66
2022/04/08 12:24:10;;;;;;;6.10;3.40;;;;;;;18.43;77.65;98460.41;6225189;23;20363;-66
2022/04/08 12:26:56;;;;;;;9.38;3.67;;;;;;;17.99;79.86;98461.72;6225220;23;20549;-68
2022/04/08 12:29:40;;;;;;;;;;;;;;;17.78;82.31;98467.75;6214676;23;20032;-68
2022/04/08 12:32:34;;;;;;;11.65;4.32;;;;;;;18.22;84.02;98453.84;6224427;23;20254;-66
2022/04/08 12:35:19;;;;;;;9.02;4.10;;;;;;;18.25;81.78;98473.31;6224771;23;20082;-67
2022/04/08 12:38:04;;;;;;;11.60;3.80;;;;;;;18.15;82.49;98445.41;6224759;23;20063;-67
2022/04/08 12:40:49;;;;;;;8.15;3.65;;;;;;;17.90;84.16;98457.03;6213490;23;20031;-66
2022/04/08 12:43:34;;;;;;;11.88;3.97;;;;;;;18.41;80.69;98446.25;6214646;23;20051;-64
2022/04/08 12:46:19;;;;;;;;;;;;;;;18.76;79.00;98452.59;6224114;23;20031;-64
2022/04/08 12:49:04;;;;;;;7.68;3.75;;;;;;;18.86;77.07;98465.22;6223463;23;19923;-65
2022/04/08 12:51:49;;;;;;;11.70;3.90;;;;;;;18.38;79.59;98458.06;6191908;23;20040;-68
2022/04/08 12:54:34;;;;;;;13.63;4.20;;;;;;;18.17;82.46;98456.88;6192493;23;20037;-66